Map

Track Data

SID SEASON NUMBER BASIN SUBBASIN NAME ISO_TIME NATURE LAT LON WMO_WIND WMO_PRES WMO_AGENCY TRACK_TYPE DIST2LAND LANDFALL IFLAG USA_AGENCY USA_ATCF_ID USA_LAT USA_LON USA_RECORD USA_STATUS USA_WIND USA_PRES USA_SSHS USA_R34_NE USA_R34_SE USA_R34_SW USA_R34_NW USA_R50_NE USA_R50_SE USA_R50_SW USA_R50_NW USA_R64_NE USA_R64_SE USA_R64_SW USA_R64_NW USA_POCI USA_ROCI USA_RMW USA_EYE TOKYO_LAT TOKYO_LON TOKYO_GRADE TOKYO_WIND TOKYO_PRES TOKYO_R50_DIR TOKYO_R50_LONG TOKYO_R50_SHORT TOKYO_R30_DIR TOKYO_R30_LONG TOKYO_R30_SHORT TOKYO_LAND CMA_LAT CMA_LON CMA_CAT CMA_WIND CMA_PRES HKO_LAT HKO_LON HKO_CAT HKO_WIND HKO_PRES NEWDELHI_LAT NEWDELHI_LON NEWDELHI_GRADE NEWDELHI_WIND NEWDELHI_PRES NEWDELHI_CI NEWDELHI_DP NEWDELHI_POCI REUNION_LAT REUNION_LON REUNION_TYPE REUNION_WIND REUNION_PRES REUNION_TNUM REUNION_CI REUNION_RMW REUNION_R34_NE REUNION_R34_SE REUNION_R34_SW REUNION_R34_NW REUNION_R50_NE REUNION_R50_SE REUNION_R50_SW REUNION_R50_NW REUNION_R64_NE REUNION_R64_SE REUNION_R64_SW REUNION_R64_NW BOM_LAT BOM_LON BOM_TYPE BOM_WIND BOM_PRES BOM_TNUM BOM_CI BOM_RMW BOM_R34_NE BOM_R34_SE BOM_R34_SW BOM_R34_NW BOM_R50_NE BOM_R50_SE BOM_R50_SW BOM_R50_NW BOM_R64_NE BOM_R64_SE BOM_R64_SW BOM_R64_NW BOM_ROCI BOM_POCI BOM_EYE BOM_POS_METHOD BOM_PRES_METHOD NADI_LAT NADI_LON NADI_CAT NADI_WIND NADI_PRES WELLINGTON_LAT WELLINGTON_LON WELLINGTON_WIND WELLINGTON_PRES DS824_LAT DS824_LON DS824_STAGE DS824_WIND DS824_PRES TD9636_LAT TD9636_LON TD9636_STAGE TD9636_WIND TD9636_PRES TD9635_LAT TD9635_LON TD9635_WIND TD9635_PRES TD9635_ROCI NEUMANN_LAT NEUMANN_LON NEUMANN_CLASS NEUMANN_WIND NEUMANN_PRES MLC_LAT MLC_LON MLC_CLASS MLC_WIND MLC_PRES USA_GUST BOM_GUST BOM_GUST_PER REUNION_GUST REUNION_GUST_PER USA_SEAHGT USA_SEARAD_NE USA_SEARAD_SE USA_SEARAD_SW USA_SEARAD_NW STORM_SPEED STORM_DIR
1951288N28284 1951 80 NA NA JIG 1951-10-15 06:00:00 TS 27.7000 -76.0000 50 hurdat_atl main 352 352 O_____________ hurdat_atl AL111951 27.7000 -76.0000 TS 50 0 13 18
1951288N28284 1951 80 NA NA JIG 1951-10-15 09:00:00 TS 28.3376 -75.7627 main 418 418 P_____________ AL111951 28.3376 -75.7627 TS 57 0 14 19
1951288N28284 1951 80 NA NA JIG 1951-10-15 12:00:00 TS 29.0000 -75.5000 65 hurdat_atl main 489 489 O_____________ hurdat_atl AL111951 29.0000 -75.5000 HU 65 1 14 20
1951288N28284 1951 80 NA NA JIG 1951-10-15 15:00:00 TS 29.6875 -75.2002 main 531 496 P_____________ AL111951 29.6875 -75.2002 HU 65 1 14 22
1951288N28284 1951 80 NA NA JIG 1951-10-15 18:00:00 TS 30.3000 -74.9000 65 hurdat_atl main 496 472 O_____________ hurdat_atl AL111951 30.3000 -74.9000 HU 65 1 12 24
1951288N28284 1951 80 NA NA JIG 1951-10-15 21:00:00 TS 30.7674 -74.6421 main 469 446 P_____________ AL111951 30.7674 -74.6421 HU 65 1 9 28
1951288N28284 1951 80 NA NA JIG 1951-10-16 00:00:00 TS 31.1000 -74.4000 65 990 hurdat_atl main 446 430 O_____________ hurdat_atl AL111951 31.1000 -74.4000 HU 65 990 1 7 36
1951288N28284 1951 80 NA NA JIG 1951-10-16 03:00:00 TS 31.3449 -74.1573 main 435 425 P_____________ AL111951 31.3449 -74.1573 HU 65 992 1 6 47
1951288N28284 1951 80 NA NA JIG 1951-10-16 06:00:00 TS 31.5000 -73.9000 65 hurdat_atl main 430 427 I_____________ hurdat_atl AL111951 31.5000 -73.9000 HU 65 995 1 5 60
1951288N28284 1951 80 NA NA JIG 1951-10-16 09:00:00 TS 31.6074 -73.6147 main 438 435 P_____________ AL111951 31.6074 -73.6147 HU 62 997 0 5 69
1951288N28284 1951 80 NA NA JIG 1951-10-16 12:00:00 TS 31.7000 -73.3000 60 1000 hurdat_atl main 447 445 O_____________ hurdat_atl AL111951 31.7000 -73.3000 TS 60 1000 0 6 68
1951288N28284 1951 80 NA NA JIG 1951-10-16 15:00:00 TS 31.8350 -72.9574 main 458 457 P_____________ AL111951 31.8350 -72.9574 TS 57 999 0 7 63
1951288N28284 1951 80 NA NA JIG 1951-10-16 18:00:00 TS 32.0000 -72.6000 55 hurdat_atl main 470 470 I_____________ hurdat_atl AL111951 32.0000 -72.6000 TS 55 999 0 7 59
1951288N28284 1951 80 NA NA JIG 1951-10-16 21:00:00 TS 32.1848 -72.2647 main 476 476 P_____________ AL111951 32.1848 -72.2647 TS 55 999 0 7 56
1951288N28284 1951 80 NA NA JIG 1951-10-17 00:00:00 TS 32.4000 -71.9000 55 999 hurdat_atl main 492 492 O_____________ hurdat_atl AL111951 32.4000 -71.9000 TS 55 999 0 8 56
1951288N28284 1951 80 NA NA JIG 1951-10-17 03:00:00 TS 32.6426 -71.4575 main 510 509 P_____________ AL111951 32.6426 -71.4575 TS 55 0 9 57
1951288N28284 1951 80 NA NA JIG 1951-10-17 06:00:00 TS 32.9000 -71.0000 55 hurdat_atl main 523 523 O_____________ hurdat_atl AL111951 32.9000 -71.0000 TS 55 0 9 55
1951288N28284 1951 80 NA NA JIG 1951-10-17 09:00:00 TS 33.1726 -70.5552 main 533 533 P_____________ AL111951 33.1726 -70.5552 TS 55 0 8 53
1951288N28284 1951 80 NA NA JIG 1951-10-17 12:00:00 TS 33.4000 -70.2000 55 hurdat_atl main 552 552 O_____________ hurdat_atl AL111951 33.4000 -70.2000 TS 55 0 6 55
1951288N28284 1951 80 NA NA JIG 1951-10-17 15:00:00 TS 33.5223 -69.9598 main 563 563 P_____________ AL111951 33.5223 -69.9598 TS 55 0 3 52
1951288N28284 1951 80 NA NA JIG 1951-10-17 18:00:00 TS 33.6000 -69.9000 55 hurdat_atl main 566 553 O_____________ hurdat_atl AL111951 33.6000 -69.9000 TS 55 0 2 347
1951288N28284 1951 80 NA NA JIG 1951-10-17 21:00:00 TS 33.7224 -70.0172 main 553 523 P_____________ AL111951 33.7224 -70.0172 TS 57 0 4 301
1951288N28284 1951 80 NA NA JIG 1951-10-18 00:00:00 ET 33.8000 -70.3000 60 hurdat_atl main 523 498 O_____________ hurdat_atl AL111951 33.8000 -70.3000 EX 60 -4 5 276
1951288N28284 1951 80 NA NA JIG 1951-10-18 03:00:00 ET 33.7800 -70.6626 main 490 464 P_____________ AL111951 33.7800 -70.6626 EX 60 -4 7 261
1951288N28284 1951 80 NA NA JIG 1951-10-18 06:00:00 ET 33.7000 -71.1000 60 hurdat_atl main 464 432 O_____________ hurdat_atl AL111951 33.7000 -71.1000 EX 60 -4 8 258
1951288N28284 1951 80 NA NA JIG 1951-10-18 09:00:00 ET 33.6153 -71.5876 main 432 409 P_____________ AL111951 33.6153 -71.5876 EX 60 -4 8 255
1951288N28284 1951 80 NA NA JIG 1951-10-18 12:00:00 ET 33.5000 -72.0000 60 hurdat_atl main 409 402 O_____________ hurdat_atl AL111951 33.5000 -72.0000 EX 60 -4 5 248
1951288N28284 1951 80 NA NA JIG 1951-10-18 15:00:00 ET 33.4097 -72.1946 main 402 402 P_____________ AL111951 33.4097 -72.1946 EX 57 -4 4 220
1951288N28284 1951 80 NA NA JIG 1951-10-18 18:00:00 ET 33.2000 -72.3000 55 hurdat_atl main 410 410 O_____________ hurdat_atl AL111951 33.2000 -72.3000 EX 55 -4 7 198
1951288N28284 1951 80 NA NA JIG 1951-10-18 21:00:00 ET 32.7225 -72.4654 main 427 427 P_____________ AL111951 32.7225 -72.4654 EX 55 -4 10 194
1951288N28284 1951 80 NA NA JIG 1951-10-19 00:00:00 ET 32.2000 -72.6000 55 hurdat_atl main 455 455 O_____________ hurdat_atl AL111951 32.2000 -72.6000 EX 55 -4 9 194
1951288N28284 1951 80 NA NA JIG 1951-10-19 03:00:00 ET 31.8699 -72.7177 main 470 470 P_____________ AL111951 31.8699 -72.7177 EX 52 -4 6 188
1951288N28284 1951 80 NA NA JIG 1951-10-19 06:00:00 ET 31.6000 -72.7000 50 hurdat_atl main 494 494 O_____________ hurdat_atl AL111951 31.6000 -72.7000 EX 50 -4 6 160
1951288N28284 1951 80 NA NA JIG 1951-10-19 09:00:00 ET 31.3000 -72.4673 main 531 531 P_____________ AL111951 31.3000 -72.4673 EX 50 -4 8 139
1951288N28284 1951 80 NA NA JIG 1951-10-19 12:00:00 ET 31.0000 -72.1000 50 hurdat_atl main 581 581 O_____________ hurdat_atl AL111951 31.0000 -72.1000 EX 50 -4 9 132
1951288N28284 1951 80 NA NA JIG 1951-10-19 15:00:00 ET 30.7001 -71.7000 main 632 632 P_____________ AL111951 30.7001 -71.7000 EX 50 -4 9 131
1951288N28284 1951 80 NA NA JIG 1951-10-19 18:00:00 ET 30.4000 -71.3000 50 hurdat_atl main 682 682 O_____________ hurdat_atl AL111951 30.4000 -71.3000 EX 50 -4 9 134
1951288N28284 1951 80 NA NA JIG 1951-10-19 21:00:00 ET 30.1000 -70.9748 main 726 726 P_____________ AL111951 30.1000 -70.9748 EX 50 -4 8 139
1951288N28284 1951 80 NA NA JIG 1951-10-20 00:00:00 ET 29.8000 -70.7000 50 hurdat_atl main 771 O_____________ hurdat_atl AL111951 29.8000 -70.7000 EX 50 -4 8 142

About IBTrACS Database

This database is a web-friendly format of International Best Track Archive for Climate Stewardship (IBTrACS), a global best track data archive curated by NOAA dating back to 1842.

Updated: 2021-11-26